Sakarya, Turkey
Current Conditions -  °F | °C
As of 7:50 AM on Thursday 23 Oct 2014 (Local Time) from LTBQ Reporting Station
Clear Clear  
Wind Chill: 14°   Ceiling: Unl
Heat Index: 14°   Visibility: 6mi
Dew Point: 10°   Wind: 5mph
Humidity: 77%   Direction: 330°NNW
Pressure: 29.71"   Gusts: NA
Location:  40.75°N, 30.45°E
Report Text: LTBQ 230450Z 33004KT 290V350 CAVOK 14/10 Q1006 NOSIG
Loading
Personal Weather Stations






























Interactive Weather Map
Tropical Storm Tracking
New forecast layout! Learn more

10-Day Weather Forecast

Advertisements
Track Severe Weather on mobile